Diboll, Texas
Current Conditions -  °F | °C
As of 12:53 PM on Thursday 30 Oct 2014 (Local Time) from KLFK Reporting Station
Clear Clear  
Wind Chill: 73°   Ceiling: Unl
Heat Index: 73°   Visibility: 10mi
Dew Point: 46°   Wind: 5mph
Humidity: 38%   Direction: NA
Pressure: 30.15"   Gusts: NA
Location:  31.19°N, 94.78°W
Report Text: KLFK 301753Z AUTO VRB04KT 10SM CLR 23/08 A3015 RMK AO2 SLP206 T02280078 10228 20089 58011
Loading
Personal Weather Stations






























Interactive Weather Map
Tropical Storm Tracking
New forecast layout! Learn more

10-Day Weather Forecast

Advertisements
Track Severe Weather on mobile